Time;durP1;ratioP1;P1;durP2;ratioP2;P2;SDS_P1;SDS_P2;PMS_P1;PMS_P2;Temp;Humidity;BMP_temperature;BMP_pressure;BME280_temperature;BME280_humidity;BME280_pressure;Samples;Min_cycle;Max_cycle;Signal;HPM_P1;HPM_P2
2022/05/20 00:02:20;;;;;;;32.60;29.03;;;16.70;99.90;;;;;;2615266;54;20512;-74
2022/05/20 00:04:46;;;;;;;38.57;30.20;;;16.60;99.90;;;;;;2615035;54;21075;-75
2022/05/20 00:07:12;;;;;;;41.57;31.30;;;16.40;99.90;;;;;;2615687;47;20413;-75
2022/05/20 00:09:38;;;;;;;38.20;31.70;;;16.30;99.90;;;;;;2615455;54;20417;-74
2022/05/20 00:12:08;;;;;;;42.10;33.93;;;16.30;99.90;;;;;;2615189;47;20420;-76
2022/05/20 00:14:34;;;;;;;37.60;29.70;;;16.20;99.90;;;;;;2616022;54;20405;-83
2022/05/20 00:17:05;;;;;;;35.47;29.77;;;16.30;99.90;;;;;;2617285;54;20414;-83
2022/05/20 00:19:32;;;;;;;41.40;34.03;;;16.30;99.90;;;;;;2617275;47;20404;-75
2022/05/20 00:21:58;;;;;;;46.23;34.97;;;16.10;99.90;;;;;;2615238;54;20416;-75
2022/05/20 00:24:24;;;;;;;45.53;35.30;;;16.10;99.90;;;;;;2616203;51;20409;-74
2022/05/20 00:26:50;;;;;;;44.67;33.47;;;16.10;99.90;;;;;;2614378;54;20429;-73
2022/05/20 00:29:17;;;;;;;44.00;33.33;;;16.10;99.90;;;;;;2614362;54;20492;-74
2022/05/20 00:31:43;;;;;;;42.80;33.13;;;16.10;99.90;;;;;;2614380;54;20481;-74
2022/05/20 00:34:09;;;;;;;47.67;34.13;;;16.10;99.90;;;;;;2615329;54;20474;-74
2022/05/20 00:36:35;;;;;;;43.73;34.47;;;16.10;99.90;;;;;;2615509;54;20395;-74
2022/05/20 00:39:01;;;;;;;43.43;33.60;;;16.10;99.90;;;;;;2614780;54;20406;-74
2022/05/20 00:41:27;;;;;;;42.70;35.37;;;16.00;99.90;;;;;;2614750;54;20406;-73
2022/05/20 00:43:53;;;;;;;44.03;34.37;;;15.90;99.90;;;;;;2614867;54;20164;-73
2022/05/20 00:46:24;;;;;;;45.93;36.30;;;15.80;99.90;;;;;;2613904;54;20735;-73
2022/05/20 00:48:58;;;;;;;44.80;34.47;;;15.70;99.90;;;;;;2614822;54;20187;-73
2022/05/20 00:51:31;;;;;;;47.37;37.20;;;15.70;99.90;;;;;;2615216;54;20388;-74
2022/05/20 00:54:20;;;;;;;52.87;38.03;;;15.60;99.90;;;;;;2615323;54;20406;-74
2022/05/20 00:57:01;;;;;;;53.50;37.97;;;15.50;99.90;;;;;;2614995;54;20407;-74
2022/05/20 00:59:29;;;;;;;52.43;38.63;;;15.50;99.90;;;;;;2614362;54;21358;-74
2022/05/20 01:02:00;;;;;;;54.87;37.77;;;15.40;99.90;;;;;;2613963;46;20870;-73
2022/05/20 01:04:26;;;;;;;47.57;34.97;;;15.50;99.90;;;;;;2613985;54;20444;-75
2022/05/20 01:06:53;;;;;;;44.80;36.33;;;15.60;99.90;;;;;;2615249;54;21740;-74
2022/05/20 01:09:19;;;;;;;47.33;35.93;;;15.60;99.90;;;;;;2614868;46;20400;-73
2022/05/20 01:11:45;;;;;;;42.80;35.00;;;15.70;99.90;;;;;;2614224;47;20395;-73
2022/05/20 01:14:22;;;;;;;44.50;36.07;;;15.70;99.90;;;;;;2615890;46;20528;-73
2022/05/20 01:16:48;;;;;;;47.13;36.80;;;15.60;99.90;;;;;;2614889;54;20403;-74
2022/05/20 01:19:39;;;;;;;56.63;39.50;;;15.70;99.90;;;;;;2615097;54;21023;-74
2022/05/20 01:22:07;;;;;;;55.67;37.80;;;15.60;99.90;;;;;;2614353;54;20409;-72
2022/05/20 01:24:34;;;;;;;54.37;40.60;;;15.60;99.90;;;;;;2615455;54;20451;-74
2022/05/20 01:27:00;;;;;;;53.50;39.07;;;15.40;99.90;;;;;;2614370;54;20975;-74
2022/05/20 01:29:26;;;;;;;54.77;41.17;;;15.40;99.90;;;;;;2614420;54;20411;-74
2022/05/20 01:31:52;;;;;;;67.20;42.33;;;15.30;99.90;;;;;;2614940;54;20497;-75
2022/05/20 01:34:20;;;;;;;56.53;41.77;;;15.40;99.90;;;;;;2615514;39;20776;-74
2022/05/20 01:36:46;;;;;;;59.03;42.10;;;15.60;99.90;;;;;;2614452;54;20148;-73
2022/05/20 01:39:12;;;;;;;58.07;40.37;;;15.70;99.90;;;;;;2614425;51;20396;-76
2022/05/20 01:42:03;;;;;;;63.77;41.77;;;15.70;99.90;;;;;;2614628;54;20417;-73
2022/05/20 01:44:34;;;;;;;59.13;41.33;;;15.70;99.90;;;;;;2614522;54;20439;-72
2022/05/20 01:47:03;;;;;;;53.10;40.17;;;15.70;99.90;;;;;;2614876;39;20830;-74
2022/05/20 01:49:49;;;;;;;50.07;37.97;;;15.60;99.90;;;;;;2613778;54;21025;-73
2022/05/20 01:52:23;;;;;;;51.40;38.70;;;15.60;99.90;;;;;;2613765;54;20431;-72
2022/05/20 01:55:16;;;;;;;48.97;37.77;;;15.70;99.90;;;;;;2616405;31;20843;-73
2022/05/20 01:58:10;;;;;;;48.10;36.57;;;15.80;99.90;;;;;;2614293;54;20409;-73
2022/05/20 02:00:39;;;;;;;59.63;38.07;;;15.80;99.90;;;;;;2614802;54;20380;-73
2022/05/20 02:03:16;;;;;;;53.13;37.03;;;15.60;99.90;;;;;;2615869;39;20449;-74
2022/05/20 02:05:59;;;;;;;48.90;38.07;;;15.60;99.90;;;;;;2614542;47;20431;-73
2022/05/20 02:08:33;;;;;;;50.10;37.13;;;15.50;99.90;;;;;;2615109;54;20451;-74
2022/05/20 02:11:19;;;;;;;50.77;37.07;;;15.60;99.90;;;;;;2614865;54;20415;-75
2022/05/20 02:13:59;;;;;;;45.30;37.57;;;15.50;99.90;;;;;;2615001;47;20411;-74
2022/05/20 02:16:31;;;;;;;46.33;35.77;;;15.40;99.90;;;;;;2614727;39;21109;-74
2022/05/20 02:19:03;;;;;;;46.20;36.30;;;15.30;99.90;;;;;;2614428;54;20836;-74
2022/05/20 02:21:33;;;;;;;58.53;39.53;;;15.30;99.90;;;;;;2615986;39;20989;-74
2022/05/20 02:24:04;;;;;;;53.87;38.33;;;15.30;99.90;;;;;;2615607;39;21122;-74
2022/05/20 02:26:36;;;;;;;54.63;39.27;;;15.30;99.90;;;;;;2614490;54;20410;-75
2022/05/20 02:29:10;;;;;;;64.20;42.00;;;15.10;99.90;;;;;;2615209;54;20411;-73
2022/05/20 02:32:03;;;;;;;52.90;40.83;;;15.00;99.90;;;;;;2614975;54;20401;-74
2022/05/20 02:34:29;;;;;;;60.60;40.27;;;15.00;99.90;;;;;;2613848;46;20410;-74
2022/05/20 02:36:55;;;;;;;64.57;41.43;;;14.90;99.90;;;;;;2614781;39;20769;-74
2022/05/20 02:39:21;;;;;;;56.67;41.27;;;15.00;99.90;;;;;;2614560;54;20411;-73
2022/05/20 02:41:49;;;;;;;63.60;43.37;;;14.80;99.90;;;;;;2614628;54;20499;-74
2022/05/20 02:44:16;;;;;;;52.53;39.33;;;14.90;99.90;;;;;;2614333;54;20908;-74
2022/05/20 02:46:46;;;;;;;61.60;41.60;;;14.90;99.90;;;;;;2614051;47;20492;-73
2022/05/20 02:49:11;;;;;;;58.10;41.17;;;14.90;99.90;;;;;;2614421;54;20408;-74
2022/05/20 02:51:37;;;;;;;52.57;38.37;;;14.90;99.90;;;;;;2614441;54;20440;-74
2022/05/20 02:54:04;;;;;;;58.90;41.83;;;14.90;99.90;;;;;;2614162;47;20270;-74
2022/05/20 02:56:31;;;;;;;56.53;40.47;;;14.90;99.90;;;;;;2614636;54;20406;-74
2022/05/20 03:04:26;;;;;;;51.57;38.40;;;15.10;99.90;;;;;;2615722;54;20426;-74
2022/05/20 03:06:54;;;;;;;54.30;38.50;;;15.10;99.90;;;;;;2615379;46;20571;-74
2022/05/20 03:09:22;;;;;;;46.03;36.47;;;15.00;99.90;;;;;;2614703;54;20409;-73
2022/05/20 03:11:49;;;;;;;51.17;37.67;;;15.00;99.90;;;;;;2615773;47;20391;-74
2022/05/20 03:14:19;;;;;;;48.40;37.90;;;15.00;99.90;;;;;;2615449;54;20392;-75
2022/05/20 03:16:46;;;;;;;50.33;36.53;;;15.00;99.90;;;;;;2615259;54;20401;-74
2022/05/20 03:19:12;;;;;;;48.33;36.07;;;15.00;99.90;;;;;;2616558;39;20737;-74
2022/05/20 03:21:39;;;;;;;46.83;35.43;;;15.00;99.90;;;;;;2615663;54;20399;-74
2022/05/20 03:24:07;;;;;;;43.70;36.70;;;14.90;99.90;;;;;;2615208;46;20436;-75
2022/05/20 03:26:34;;;;;;;51.73;37.63;;;14.90;99.90;;;;;;2615462;54;20418;-75
2022/05/20 03:29:02;;;;;;;54.70;41.67;;;14.90;99.90;;;;;;2614949;54;20985;-74
2022/05/20 03:31:34;;;;;;;52.67;40.80;;;14.70;99.90;;;;;;2615483;47;20400;-74
2022/05/20 03:34:05;;;;;;;51.13;40.27;;;14.60;99.90;;;;;;2615426;47;20406;-74
2022/05/20 03:36:50;;;;;;;56.57;39.83;;;14.60;99.90;;;;;;2614826;47;20407;-75
2022/05/20 03:39:20;;;;;;;48.60;38.00;;;14.60;99.90;;;;;;2615609;54;20411;-74
2022/05/20 03:41:47;;;;;;;51.87;38.20;;;14.60;99.90;;;;;;2615209;54;20545;-75
2022/05/20 03:44:14;;;;;;;50.53;38.83;;;14.60;99.90;;;;;;2615513;54;20479;-74
2022/05/20 03:46:46;;;;;;;56.57;37.23;;;14.60;99.90;;;;;;2614353;54;20428;-74
2022/05/20 03:49:13;;;;;;;51.13;37.53;;;14.70;99.90;;;;;;2615086;54;20425;-74
2022/05/20 03:51:40;;;;;;;52.30;37.30;;;14.90;99.90;;;;;;2615587;54;20484;-74
2022/05/20 03:54:06;;;;;;;55.10;37.60;;;14.90;99.90;;;;;;2615129;54;20978;-74
2022/05/20 03:56:32;;;;;;;53.03;37.90;;;14.90;99.90;;;;;;2615357;54;20532;-74
2022/05/20 03:58:58;;;;;;;45.47;36.47;;;14.90;99.90;;;;;;2615004;47;20158;-74
2022/05/20 04:04:09;;;;;;;51.13;37.57;;;14.90;99.90;;;;;;2615246;54;20517;-73
2022/05/20 04:06:34;;;;;;;51.97;40.93;;;14.90;99.90;;;;;;2614592;47;20943;-74
2022/05/20 04:09:00;;;;;;;54.83;39.87;;;14.80;99.90;;;;;;2613884;47;20180;-74
2022/05/20 04:11:27;;;;;;;52.33;39.53;;;14.80;99.90;;;;;;2614866;54;20175;-73
2022/05/20 04:13:54;;;;;;;50.80;40.07;;;14.80;99.90;;;;;;2615756;47;20159;-73
2022/05/20 04:16:19;;;;;;;51.30;38.80;;;15.00;99.90;;;;;;2615519;54;21227;-75
2022/05/20 04:18:45;;;;;;;48.77;40.03;;;15.00;99.90;;;;;;2615200;54;20412;-74
2022/05/20 04:21:14;;;;;;;51.00;39.70;;;15.20;99.90;;;;;;2614341;47;20151;-75
2022/05/20 04:23:41;;;;;;;50.77;38.40;;;15.40;99.90;;;;;;2614933;39;20758;-74
2022/05/20 04:26:08;;;;;;;52.73;36.70;;;15.50;99.90;;;;;;2615570;47;20432;-72
2022/05/20 04:28:34;;;;;;;46.83;38.87;;;15.50;99.90;;;;;;2614242;54;20417;-74
2022/05/20 04:31:02;;;;;;;47.83;38.40;;;15.70;99.90;;;;;;2615109;54;20414;-73
2022/05/20 04:33:29;;;;;;;49.30;35.93;;;15.80;99.90;;;;;;2614729;54;20443;-74
2022/05/20 04:35:56;;;;;;;49.37;37.53;;;15.90;99.90;;;;;;2615909;54;20475;-74
2022/05/20 04:38:22;;;;;;;49.20;34.97;;;15.80;99.90;;;;;;2615632;54;20371;-73
2022/05/20 04:46:56;;;;;;;48.80;35.70;;;15.90;99.90;;;;;;2614866;54;20945;-74
2022/05/20 04:49:08;;;;;;;45.60;34.07;;;16.00;99.90;;;;;;2615722;54;20405;-74
2022/05/20 04:51:34;;;;;;;47.53;36.53;;;16.00;99.90;;;;;;2615373;54;20408;-74
2022/05/20 04:56:44;;;;;;;45.40;36.07;;;16.10;99.90;;;;;;2615413;54;20928;-74
2022/05/20 04:59:10;;;;;;;49.43;38.33;;;16.20;99.90;;;;;;2613965;54;20455;-74
2022/05/20 05:01:36;;;;;;;48.60;38.83;;;16.20;99.90;;;;;;2614765;47;20413;-74
2022/05/20 05:04:02;;;;;;;47.37;37.30;;;16.30;99.90;;;;;;2614318;47;20156;-75
2022/05/20 05:06:27;;;;;;;53.13;41.00;;;16.30;99.90;;;;;;2614789;54;20147;-74
2022/05/20 05:08:53;;;;;;;50.87;38.17;;;16.50;99.90;;;;;;2615226;54;20823;-73
2022/05/20 05:11:20;;;;;;;44.73;36.50;;;16.50;99.90;;;;;;2614446;46;20684;-74
2022/05/20 05:13:46;;;;;;;51.43;39.33;;;16.50;99.90;;;;;;2612829;54;20406;-75
2022/05/20 05:16:12;;;;;;;48.20;37.03;;;16.50;99.90;;;;;;2614544;54;20394;-74
2022/05/20 05:18:38;;;;;;;49.93;36.63;;;16.50;99.90;;;;;;2614786;39;20812;-75
2022/05/20 05:21:04;;;;;;;52.63;36.97;;;16.50;99.90;;;;;;2615208;54;20386;-76
2022/05/20 05:23:31;;;;;;;47.93;38.30;;;16.50;99.90;;;;;;2615306;54;20393;-75
2022/05/20 05:25:57;;;;;;;48.80;37.50;;;16.70;99.90;;;;;;2615428;54;20410;-74
2022/05/20 05:28:23;;;;;;;43.67;35.63;;;16.90;99.90;;;;;;2614648;54;20484;-76
2022/05/20 05:30:51;;;;;;;47.53;35.60;;;17.00;99.90;;;;;;2613827;47;21330;-75
2022/05/20 05:33:18;;;;;;;42.20;35.30;;;17.30;99.90;;;;;;2615530;54;20168;-75
2022/05/20 05:35:45;;;;;;;38.93;33.23;;;17.60;99.90;;;;;;2615442;54;20399;-75
2022/05/20 05:38:11;;;;;;;38.17;32.93;;;17.80;99.90;;;;;;2615770;39;21083;-74
2022/05/20 05:40:38;;;;;;;37.83;32.60;;;17.90;99.90;;;;;;2614998;47;20493;-74
2022/05/20 05:43:05;;;;;;;37.57;33.47;;;18.10;99.90;;;;;;2614958;54;20415;-75
2022/05/20 05:45:32;;;;;;;43.07;33.07;;;18.30;99.90;;;;;;2615194;54;20415;-75
2022/05/20 05:48:02;;;;;;;37.70;33.60;;;18.30;99.90;;;;;;2615097;54;21228;-75
2022/05/20 05:50:30;;;;;;;41.73;35.60;;;18.20;99.90;;;;;;2614930;54;20408;-75
2022/05/20 05:53:19;;;;;;;37.97;30.60;;;18.20;99.90;;;;;;2614450;54;20410;-75
2022/05/20 05:55:47;;;;;;;40.37;31.67;;;18.30;99.90;;;;;;2614918;54;20421;-74
2022/05/20 05:58:14;;;;;;;35.90;31.40;;;18.40;99.90;;;;;;2614234;54;20390;-74
2022/05/20 06:00:40;;;;;;;40.50;31.47;;;18.60;99.90;;;;;;2611392;54;20929;-75
2022/05/20 06:03:08;;;;;;;35.20;31.40;;;18.80;99.90;;;;;;2613728;31;20888;-74
2022/05/20 06:05:34;;;;;;;30.63;27.13;;;19.00;99.90;;;;;;2615359;54;20554;-74
2022/05/20 06:08:01;;;;;;;32.53;27.23;;;19.40;99.90;;;;;;2614957;54;21311;-74
2022/05/20 06:10:28;;;;;;;28.60;25.60;;;19.70;99.90;;;;;;2614691;54;20399;-76
2022/05/20 06:12:55;;;;;;;30.30;25.17;;;19.90;99.90;;;;;;2614895;54;20418;-74
2022/05/20 06:15:22;;;;;;;30.37;26.50;;;20.20;99.90;;;;;;2615131;46;20423;-75
2022/05/20 06:17:51;;;;;;;30.40;26.53;;;20.10;99.90;;;;;;2614374;54;20410;-76
2022/05/20 06:20:19;;;;;;;28.50;24.60;;;20.30;99.90;;;;;;2615279;54;20391;-73
2022/05/20 06:22:45;;;;;;;26.77;23.80;;;20.60;99.90;;;;;;2614784;54;20411;-75
2022/05/20 06:25:12;;;;;;;25.13;22.47;;;20.80;99.90;;;;;;2614895;54;20473;-75
2022/05/20 06:27:39;;;;;;;22.90;20.47;;;20.90;99.90;;;;;;2614368;54;20982;-74
2022/05/20 06:30:08;;;;;;;22.40;20.23;;;20.80;99.90;;;;;;2615233;54;20438;-75
2022/05/20 06:32:35;;;;;;;22.87;18.47;;;20.90;99.90;;;;;;2614985;39;20834;-75
2022/05/20 06:40:47;;;;;;;20.77;18.27;;;21.30;99.90;;;;;;2615533;54;20404;-73
2022/05/20 06:43:19;;;;;;;19.50;17.40;;;21.30;99.90;;;;;;2615005;54;20959;-74
2022/05/20 06:45:47;;;;;;;19.83;17.70;;;21.60;99.90;;;;;;2615711;54;20407;-73
2022/05/20 06:48:14;;;;;;;21.00;17.43;;;21.60;99.90;;;;;;2614918;54;20415;-76
2022/05/20 06:50:40;;;;;;;22.30;18.60;;;21.50;99.90;;;;;;2615560;47;20434;-75
2022/05/20 06:53:07;;;;;;;19.67;17.63;;;21.70;99.90;;;;;;2615251;54;20967;-74
2022/05/20 06:55:34;;;;;;;21.07;18.63;;;21.70;99.90;;;;;;2615597;54;20395;-74
2022/05/20 06:58:01;;;;;;;19.67;17.63;;;21.90;99.90;;;;;;2615458;54;20543;-74
2022/05/20 07:00:27;;;;;;;21.30;19.23;;;21.90;99.90;;;;;;2614232;47;20407;-76
2022/05/20 07:02:53;;;;;;;21.93;19.73;;;22.10;99.90;;;;;;2616108;39;20776;-75
2022/05/20 07:05:19;;;;;;;20.67;18.43;;;22.10;99.90;;;;;;2616583;54;20439;-83
2022/05/20 07:07:45;;;;;;;20.87;18.60;;;22.40;99.90;;;;;;2617142;39;21061;-85
2022/05/20 07:10:13;;;;;;;19.33;17.33;;;22.70;99.90;;;;;;2617318;54;21002;-84
2022/05/20 07:12:39;;;;;;;19.60;17.67;;;22.60;98.80;;;;;;2616698;39;20507;-83
2022/05/20 07:15:07;;;;;;;19.90;18.00;;;22.70;99.30;;;;;;2617948;46;20403;-84
2022/05/20 07:17:35;;;;;;;22.00;19.80;;;23.00;91.50;;;;;;2616891;54;20400;-85
2022/05/20 07:20:02;;;;;;;23.60;21.27;;;22.80;94.70;;;;;;2616602;54;20403;-73
2022/05/20 07:22:28;;;;;;;22.00;19.77;;;22.80;94.10;;;;;;2615326;54;20512;-73
2022/05/20 07:24:55;;;;;;;19.70;17.67;;;22.90;94.60;;;;;;2615203;54;20423;-74
2022/05/20 07:27:21;;;;;;;20.40;18.30;;;23.00;91.00;;;;;;2615675;54;20270;-74
2022/05/20 07:29:47;;;;;;;22.03;19.93;;;22.90;90.60;;;;;;2615386;54;20408;-73
2022/05/20 07:32:13;;;;;;;21.63;18.87;;;22.90;92.90;;;;;;2616274;39;21148;-74
2022/05/20 07:34:39;;;;;;;21.93;19.27;;;23.10;87.80;;;;;;2615557;54;20516;-74
2022/05/20 07:37:05;;;;;;;21.07;18.90;;;23.20;84.40;;;;;;2615204;54;20153;-73
2022/05/20 07:39:32;;;;;;;23.80;21.33;;;23.40;74.30;;;;;;2615586;47;20169;-74
2022/05/20 07:41:58;;;;;;;24.83;19.67;;;23.60;63.60;;;;;;2614712;54;20715;-76
2022/05/20 07:44:23;;;;;;;18.57;16.67;;;23.60;63.40;;;;;;2615129;47;20420;-74
2022/05/20 07:46:49;;;;;;;20.83;17.97;;;24.00;59.70;;;;;;2615490;54;20520;-72
2022/05/20 07:49:15;;;;;;;21.93;17.87;;;23.90;44.50;;;;;;2615461;54;20409;-74
2022/05/20 07:51:45;;;;;;;25.50;20.60;;;24.10;42.10;;;;;;2614403;54;20151;-71
2022/05/20 07:54:19;;;;;;;21.27;19.07;;;23.80;42.60;;;;;;2615254;39;20959;-73
2022/05/20 07:56:51;;;;;;;26.33;21.50;;;24.00;44.30;;;;;;2616020;54;21094;-72
2022/05/20 07:59:21;;;;;;;31.27;24.43;;;23.80;40.30;;;;;;2615148;39;21004;-73
2022/05/20 08:01:49;;;;;;;35.20;27.73;;;24.10;43.10;;;;;;2615301;54;20439;-72
2022/05/20 08:04:53;;;;;;;29.27;26.27;;;24.60;36.90;;;;;;2615975;54;20442;-71
2022/05/20 08:07:23;;;;;;;37.40;28.07;;;24.30;39.10;;;;;;2615706;54;20427;-73
2022/05/20 08:09:49;;;;;;;31.17;28.03;;;24.00;43.00;;;;;;2616166;54;20406;-73
2022/05/20 08:12:16;;;;;;;32.77;27.83;;;23.90;49.10;;;;;;2615667;46;20400;-72
2022/05/20 08:14:41;;;;;;;33.67;30.00;;;23.80;43.10;;;;;;2615609;54;20434;-73
2022/05/20 08:17:08;;;;;;;31.60;28.30;;;23.70;52.50;;;;;;2615447;54;20409;-75
2022/05/20 08:19:34;;;;;;;33.23;29.83;;;23.70;51.70;;;;;;2615511;54;20419;-72
2022/05/20 08:22:00;;;;;;;32.77;29.50;;;23.90;52.20;;;;;;2615476;54;20427;-72
2022/05/20 08:24:26;;;;;;;33.87;30.37;;;24.00;48.90;;;;;;2615561;39;20792;-73
2022/05/20 08:26:53;;;;;;;33.43;29.87;;;24.10;49.90;;;;;;2615070;46;20412;-72
2022/05/20 08:29:19;;;;;;;30.33;26.60;;;23.90;49.00;;;;;;2615097;47;20429;-72
2022/05/20 08:31:45;;;;;;;27.90;25.07;;;23.90;47.10;;;;;;2614156;47;20390;-73
2022/05/20 08:34:13;;;;;;;28.00;25.30;;;23.80;47.80;;;;;;2615839;46;20427;-72
2022/05/20 08:36:40;;;;;;;26.20;23.60;;;23.70;46.00;;;;;;2615674;54;20152;-73
2022/05/20 08:39:10;;;;;;;28.07;25.33;;;23.80;49.60;;;;;;2614933;54;20503;-72
2022/05/20 08:41:42;;;;;;;27.43;24.80;;;23.80;47.40;;;;;;2615842;31;20898;-73
2022/05/20 08:44:12;;;;;;;27.90;25.00;;;23.70;52.00;;;;;;2615239;47;20443;-72
2022/05/20 08:46:39;;;;;;;30.10;26.97;;;23.90;49.30;;;;;;2615681;54;20413;-72
2022/05/20 08:49:10;;;;;;;27.00;24.37;;;23.90;46.70;;;;;;2615500;54;20494;-74
2022/05/20 08:51:39;;;;;;;24.50;22.23;;;23.80;49.60;;;;;;2615392;54;20403;-72
2022/05/20 08:54:06;;;;;;;26.40;23.70;;;23.70;49.60;;;;;;2615717;47;20403;-73
2022/05/20 08:56:32;;;;;;;25.97;23.37;;;23.70;49.40;;;;;;2614944;54;20951;-73
2022/05/20 08:59:05;;;;;;;27.90;24.60;;;23.60;47.40;;;;;;2615395;54;20391;-72
2022/05/20 09:01:32;;;;;;;26.07;23.43;;;23.40;55.20;;;;;;2615059;54;20495;-73
2022/05/20 09:03:58;;;;;;;27.40;24.73;;;23.50;47.60;;;;;;2615266;54;20465;-73
2022/05/20 09:06:25;;;;;;;25.50;23.00;;;23.10;52.50;;;;;;2615645;54;20395;-73
2022/05/20 09:09:13;;;;;;;24.60;22.03;;;23.00;55.30;;;;;;2615264;54;20446;-74
2022/05/20 09:11:44;;;;;;;26.80;24.03;;;22.90;59.50;;;;;;2616278;31;20877;-71
2022/05/20 09:17:18;;;;;;;29.90;26.70;;;22.70;67.40;;;;;;2615325;54;20438;-73
2022/05/20 09:20:07;;;;;;;28.83;25.37;;;22.90;63.90;;;;;;2615074;54;20415;-71
2022/05/20 09:22:38;;;;;;;34.50;27.17;;;22.90;63.20;;;;;;2615029;54;20436;-72
2022/05/20 09:25:29;;;;;;;29.57;25.70;;;23.00;62.30;;;;;;2616008;39;20834;-71
2022/05/20 09:28:17;;;;;;;27.93;24.50;;;23.20;62.00;;;;;;2615248;54;20442;-71
2022/05/20 09:30:47;;;;;;;26.10;23.60;;;23.30;61.70;;;;;;2615032;54;20399;-73
2022/05/20 09:33:28;;;;;;;28.63;25.80;;;23.70;56.70;;;;;;2615791;39;20933;-71
2022/05/20 09:35:59;;;;;;;33.13;25.57;;;24.10;53.00;;;;;;2614897;54;20408;-71
2022/05/20 09:38:46;;;;;;;29.27;25.47;;;24.40;47.90;;;;;;2615891;39;20933;-72
2022/05/20 09:41:20;;;;;;;30.37;27.10;;;24.30;47.80;;;;;;2614892;54;20403;-72
2022/05/20 09:43:57;;;;;;;26.30;23.67;;;24.20;43.90;;;;;;2615723;47;20391;-72
2022/05/20 09:46:39;;;;;;;30.97;24.17;;;24.00;46.20;;;;;;2615087;47;20410;-71
2022/05/20 09:49:33;;;;;;;29.07;23.80;;;23.80;49.00;;;;;;2616062;54;21317;-73
2022/05/20 09:52:01;;;;;;;26.53;23.80;;;24.00;49.80;;;;;;2614426;54;20454;-74
2022/05/20 09:54:37;;;;;;;29.63;23.93;;;24.50;46.50;;;;;;2615204;54;20403;-71
2022/05/20 09:57:21;;;;;;;27.83;25.13;;;24.70;43.00;;;;;;2615339;39;20875;-73
2022/05/20 09:59:53;;;;;;;28.80;25.67;;;24.50;42.20;;;;;;2615319;54;20392;-71
2022/05/20 10:02:30;;;;;;;26.20;23.40;;;24.90;39.00;;;;;;2614425;54;20494;-73
2022/05/20 10:05:12;;;;;;;27.80;25.03;;;25.80;34.60;;;;;;2613257;54;20427;-70
2022/05/20 10:08:00;;;;;;;28.87;23.10;;;26.40;27.70;;;;;;2614670;54;21052;-72
2022/05/20 10:10:49;;;;;;;29.37;26.27;;;27.00;23.80;;;;;;2614173;47;20415;-71
2022/05/20 10:13:29;;;;;;;25.73;23.00;;;27.10;20.80;;;;;;2614989;54;20520;-71
2022/05/20 10:16:11;;;;;;;25.20;21.07;;;26.80;24.10;;;;;;2614304;47;20395;-72
2022/05/20 10:18:47;;;;;;;26.60;23.90;;;27.40;21.50;;;;;;2615034;54;20408;-72
2022/05/20 10:21:44;;;;;;;28.17;25.30;;;27.80;18.20;;;;;;2614493;47;20396;-73
2022/05/20 10:24:38;;;;;;;30.90;25.40;;;27.50;18.70;;;;;;2615050;54;20948;-72
2022/05/20 10:27:22;;;;;;;27.73;25.13;;;27.10;18.50;;;;;;2614048;47;20493;-72
2022/05/20 10:32:47;;;;;;;31.17;27.00;;;26.10;25.70;;;;;;2613514;54;20395;-72
2022/05/20 10:35:23;;;;;;;30.60;27.40;;;26.10;34.60;;;;;;2614793;54;20395;-71
2022/05/20 10:38:05;;;;;;;28.60;25.60;;;26.20;24.20;;;;;;2613832;54;20393;-73
2022/05/20 10:40:50;;;;;;;31.07;27.70;;;25.70;25.80;;;;;;2614476;54;20523;-71
2022/05/20 10:43:31;;;;;;;30.27;27.00;;;25.30;41.60;;;;;;2614482;39;20889;-71
2022/05/20 10:48:58;;;;;;;29.30;26.50;;;25.30;33.20;;;;;;2614117;54;20427;-70
2022/05/20 10:51:43;;;;;;;28.07;24.80;;;26.00;30.10;;;;;;2612713;46;20422;-71
2022/05/20 10:54:30;;;;;;;26.90;23.63;;;26.50;40.40;;;;;;2613662;54;20400;-73
2022/05/20 10:57:08;;;;;;;30.23;27.10;;;27.10;22.60;;;;;;2614481;54;20407;-72
2022/05/20 10:59:34;;;;;;;29.83;25.40;;;27.50;19.80;;;;;;2615006;54;20407;-73
2022/05/20 11:02:06;;;;;;;28.73;24.73;;;27.60;20.50;;;;;;2615347;39;20765;-71
2022/05/20 11:05:02;;;;;;;28.00;25.10;;;27.70;19.90;;;;;;2614416;54;20186;-72
2022/05/20 11:08:06;;;;;;;27.20;24.43;;;28.00;18.80;;;;;;2614554;54;21043;-70
2022/05/20 11:10:42;;;;;;;27.03;24.23;;;28.30;17.30;;;;;;2613274;54;20452;-71
2022/05/20 11:13:29;;;;;;;25.20;22.80;;;28.30;16.40;;;;;;2612673;47;20553;-72
2022/05/20 11:15:55;;;;;;;27.00;24.33;;;28.20;17.30;;;;;;2612833;54;20430;-71
2022/05/20 11:18:51;;;;;;;26.47;23.87;;;28.10;16.40;;;;;;2613412;54;20396;-69
2022/05/20 11:21:23;;;;;;;28.40;25.47;;;28.30;16.70;;;;;;2614182;54;20512;-71
2022/05/20 11:23:51;;;;;;;30.00;26.80;;;27.90;17.80;;;;;;2614375;47;20416;-69
2022/05/20 11:26:57;;;;;;;25.93;23.33;;;28.30;17.30;;;;;;2614603;46;20388;-70
2022/05/20 11:29:44;;;;;;;28.80;25.70;;;28.80;18.30;;;;;;2614222;46;20489;-71
2022/05/20 11:32:12;;;;;;;29.30;26.50;;;29.30;13.90;;;;;;2614198;54;20404;-71
2022/05/20 11:35:01;;;;;;;30.30;27.37;;;29.10;12.40;;;;;;2614479;46;20401;-73
2022/05/20 11:37:59;;;;;;;27.20;24.60;;;29.00;13.50;;;;;;2614178;54;20388;-73
2022/05/20 11:40:31;;;;;;;25.97;23.77;;;29.00;13.80;;;;;;2613759;54;20428;-73
2022/05/20 11:43:03;;;;;;;26.70;24.33;;;29.40;15.50;;;;;;2614719;54;20397;-73
2022/05/20 11:45:42;;;;;;;27.23;24.60;;;28.80;17.30;;;;;;2615554;54;20397;-73
2022/05/20 11:48:39;;;;;;;26.30;23.90;;;28.80;17.80;;;;;;2615947;54;20414;-72
2022/05/20 11:51:14;;;;;;;22.87;20.67;;;29.20;15.20;;;;;;2615941;54;20421;-76
2022/05/20 11:53:46;;;;;;;23.03;20.80;;;29.20;17.30;;;;;;2616418;47;20389;-75
2022/05/20 11:56:37;;;;;;;25.00;22.73;;;28.90;18.50;;;;;;2617104;47;20406;-73
2022/05/20 11:59:17;;;;;;;23.10;20.30;;;29.00;18.00;;;;;;2615267;54;20406;-73
2022/05/20 12:01:47;;;;;;;22.93;20.83;;;29.60;16.30;;;;;;2625180;46;20449;-84
2022/05/20 12:04:14;;;;;;;21.77;19.57;;;29.10;16.40;;;;;;2620604;54;20406;-82
2022/05/20 12:06:46;;;;;;;21.20;19.07;;;28.60;21.30;;;;;;2619557;54;20424;-83
2022/05/20 12:09:32;;;;;;;22.03;19.80;;;28.70;20.40;;;;;;2619845;54;20426;-84
2022/05/20 12:12:08;;;;;;;24.00;21.60;;;29.10;19.50;;;;;;2620479;54;20377;-81
2022/05/20 12:15:00;;;;;;;20.20;18.30;;;28.90;18.10;;;;;;2622712;54;20387;-86
2022/05/20 12:17:35;;;;;;;19.50;17.57;;;29.50;18.30;;;;;;2617722;54;20432;-76
2022/05/20 12:26:24;;;;;;;21.00;19.10;;;29.50;16.40;;;;;;2615138;54;20414;-70
2022/05/20 12:28:50;;;;;;;24.30;21.80;;;29.20;17.20;;;;;;2615665;47;20402;-71
2022/05/20 12:31:39;;;;;;;23.90;21.70;;;28.70;19.30;;;;;;2620480;54;20397;-82
2022/05/20 12:34:10;;;;;;;23.27;20.90;;;27.70;25.30;;;;;;2623085;54;20407;-82
2022/05/20 12:36:40;;;;;;;22.93;19.23;;;27.80;24.50;;;;;;2622877;54;20384;-80
2022/05/20 12:39:09;;;;;;;22.00;19.90;;;27.20;44.20;;;;;;2622343;31;20915;-82
2022/05/20 12:41:49;;;;;;;22.37;19.93;;;27.00;41.10;;;;;;2617282;47;20402;-72
2022/05/20 12:44:16;;;;;;;23.90;21.50;;;;;;;;;;2615380;54;20404;-71
2022/05/20 12:47:09;;;;;;;21.53;19.53;;;26.80;32.30;;;;;;2616543;54;20444;-74
2022/05/20 12:49:49;;;;;;;22.00;19.90;;;26.30;43.80;;;;;;2616795;47;20396;-74
2022/05/20 12:52:24;;;;;;;22.90;19.93;;;26.10;45.30;;;;;;2623474;54;20380;-82
2022/05/20 12:54:59;;;;;;;22.23;18.17;;;26.10;45.60;;;;;;2621078;54;20561;-80
2022/05/20 12:57:34;;;;;;;22.80;20.50;;;26.00;50.90;;;;;;2619668;54;20387;-80
2022/05/20 13:00:09;;;;;;;21.83;19.53;;;25.50;67.70;;;;;;2619722;46;20417;-76
2022/05/20 13:02:54;;;;;;;21.30;19.03;;;25.10;91.50;;;;;;2615544;54;20423;-76
2022/05/20 13:05:30;;;;;;;22.40;20.30;;;25.30;76.90;;;;;;2615529;54;20415;-76
2022/05/20 13:07:58;;;;;;;20.10;18.10;;;25.40;99.90;;;;;;2616243;54;20427;-76
2022/05/20 13:10:26;;;;;;;23.07;20.50;;;;;;;;;;2617226;54;20411;-82
2022/05/20 13:12:59;;;;;;;25.27;22.40;;;24.90;99.90;;;;;;2620766;54;20415;-83
2022/05/20 13:15:25;;;;;;;23.30;20.67;;;24.50;99.90;;;;;;2620679;39;20826;-73
2022/05/20 13:17:58;;;;;;;26.67;24.03;;;24.30;99.90;;;;;;2616416;47;20700;-73
2022/05/20 13:20:26;;;;;;;24.83;22.10;;;24.00;99.90;;;;;;2613955;47;20416;-74
2022/05/20 13:22:52;;;;;;;25.63;22.93;;;23.80;99.90;;;;;;2615303;46;20880;-74
2022/05/20 13:25:19;;;;;;;30.20;26.40;;;23.70;99.90;;;;;;2615063;54;20415;-75
2022/05/20 13:27:47;;;;;;;33.67;26.77;;;23.30;99.90;;;;;;2614793;54;20609;-76
2022/05/20 13:30:16;;;;;;;29.53;25.83;;;;;;;;;;2616783;54;20480;-80